PDT,Max TemperatureF,Mean TemperatureF,Min TemperatureF,Max Dew PointF,MeanDew PointF,Min DewpointF,Max Humidity, Mean Humidity, Min Humidity, Max Sea Level PressureIn, Mean Sea Level PressureIn, Min Sea Level PressureIn, Max VisibilityMiles, Mean VisibilityMiles, Min VisibilityMiles, Max Wind SpeedMPH, Mean Wind SpeedMPH, Max Gust SpeedMPH,PrecipitationIn, CloudCover, Events, WindDirDegrees
2012-10-1,80,58,35,39,32,25,65,41,23,30.32,30.21,30.06,10,10,7,8,2,,0.00,0,,267
2012-10-2,77,59,41,43,29,16,57,35,12,30.15,30.04,29.96,10,9,2,22,6,26,0.00,1,,327
2012-10-3,60,46,32,19,16,9,44,29,20,30.34,30.27,30.16,10,10,10,20,12,24,0.00,0,,339
2012-10-4,60,42,23,25,18,10,59,39,19,30.27,30.23,30.19,10,10,4,18,6,24,0.00,0,,314
2012-10-5,62,43,24,25,18,9,59,38,17,30.32,30.26,30.21,10,10,3,14,7,,0.00,0,,328
2012-10-6,62,42,21,21,16,9,64,38,19,30.33,30.25,30.17,10,9,1,8,3,,0.00,0,,293
2012-10-7,69,46,24,25,15,7,54,34,14,30.22,30.12,30.00,10,9,0,12,3,17,0.00,0,,149
2012-10-8,68,46,23,27,18,9,59,37,19,30.03,29.98,29.91,10,10,2,10,3,,0.00,0,,297
2012-10-9,71,50,28,32,23,12,55,40,23,30.09,30.03,30.00,10,10,6,12,4,,0.00,0,,334
2012-10-10,73,52,30,37,29,19,70,46,25,30.04,29.96,29.87,10,10,1,7,1,,0.00,0,,282
2012-10-11,73,50,26,36,27,18,69,48,25,30.01,29.92,29.82,10,10,7,7,1,,0.00,0,,286
2012-10-12,71,50,28,43,31,18,71,52,20,30.03,29.90,29.84,10,9,0,18,3,24,0.00,3,,360
2012-10-13,64,56,48,46,45,39,82,67,49,30.24,30.18,30.03,10,10,8,9,4,,0.00,7,,157
2012-10-14,73,58,44,45,41,37,82,51,31,30.24,30.12,30.00,10,10,2,21,8,30,0.00,2,,186
2012-10-15,69,60,51,52,48,45,82,65,43,30.03,29.93,29.76,10,8,0,13,5,18,0.00,8,,161
2012-10-16,62,53,42,50,36,27,72,52,33,30.19,29.95,29.66,10,10,10,29,13,36,0.37,4,Thunderstorm,298
2012-10-17,55,45,35,32,29,25,70,54,38,30.27,30.24,30.20,10,10,2,10,4,,0.00,3,,135
2012-10-18,64,46,28,34,27,19,80,49,25,30.29,30.17,29.98,10,10,10,23,6,33,0.01,0,,166
2012-10-19,59,52,46,43,33,25,82,51,29,30.01,29.90,29.77,10,9,3,23,13,32,0.00,7,,185
2012-10-20,51,42,32,43,33,21,76,65,43,29.90,29.85,29.78,10,10,5,15,4,18,0.00,6,,274
2012-10-21,50,38,26,34,25,19,75,64,43,29.92,29.85,29.77,10,8,0,7,2,,0.00,3,,241
2012-10-22,51,40,28,34,26,19,75,68,50,29.77,29.63,29.51,10,7,0,17,3,24,0.24,6,,165
2012-10-23,46,39,32,37,29,25,87,73,50,29.94,29.82,29.68,10,9,0,17,7,18,0.03,5,,61
2012-10-24,44,37,30,34,28,25,86,75,53,30.13,29.99,29.93,10,8,0,16,5,21,0.00,7,,318
2012-10-25,44,36,28,36,30,23,87,76,61,30.41,30.31,30.13,10,9,5,12,2,,0.00,6,,281
2012-10-26,41,34,28,32,28,21,80,69,61,30.40,30.23,30.12,10,10,5,23,8,30,0.01,6,,183
2012-10-27,44,40,37,36,32,28,87,73,57,30.13,30.07,29.99,10,9,3,31,13,37,0.02,8,,184
2012-10-28,51,46,42,52,41,36,100,77,66,30.01,29.99,29.96,10,10,5,26,15,32,0.12,8,,187
2012-10-29,66,55,44,50,44,37,94,71,49,30.11,30.03,29.93,10,10,8,22,12,28,0.10,6,,184
2012-10-30,64,54,44,46,42,37,81,61,45,30.09,29.98,29.90,10,10,10,22,8,26,0.00,5,,172
2012-10-31,66,58,50,39,35,30,62,41,30,29.90,29.83,29.76,10,10,10,25,14,38,0.00,1,,181